Time;durP1;ratioP1;P1;durP2;ratioP2;P2;SDS_P1;SDS_P2;PMS_P1;PMS_P2;Temp;Humidity;BMP_temperature;BMP_pressure;BME280_temperature;BME280_humidity;BME280_pressure;Samples;Min_cycle;Max_cycle;Signal;HPM_P1;HPM_P2
2024/03/21 00:00:13;;;;;;;9.35;4.35;;;13.00;99.90;;;;;;5021873;28;20030;-80
2024/03/21 00:02:46;;;;;;;10.25;4.95;;;13.00;99.90;;;;;;5027251;28;20025;-82
2024/03/21 00:05:15;;;;;;;12.90;4.50;;;13.00;99.90;;;;;;5005046;28;20396;-80
2024/03/21 00:07:48;;;;;;;9.70;4.38;;;13.00;99.90;;;;;;5022523;28;20021;-81
2024/03/21 00:10:14;;;;;;;9.25;4.75;;;13.00;99.90;;;;;;5026505;28;20049;-79
2024/03/21 00:12:40;;;;;;;12.25;4.68;;;13.00;99.90;;;;;;5010149;28;20087;-80
2024/03/21 00:15:07;;;;;;;11.13;5.00;;;13.00;99.90;;;;;;5020851;28;20431;-80
2024/03/21 00:17:34;;;;;;;10.10;4.72;;;13.00;99.90;;;;;;5025542;28;20029;-80
2024/03/21 00:20:01;;;;;;;9.73;5.15;;;13.00;99.90;;;;;;5028309;28;20037;-81
2024/03/21 00:22:26;;;;;;;8.73;5.05;;;13.00;99.90;;;;;;5008212;28;20112;-80
2024/03/21 00:24:52;;;;;;;11.93;4.75;;;13.00;99.90;;;;;;5025596;28;20097;-80
2024/03/21 00:27:17;;;;;;;8.02;4.53;;;13.00;99.90;;;;;;5009777;28;20030;-80
2024/03/21 00:29:43;;;;;;;9.00;4.68;;;13.00;99.90;;;;;;5024743;28;20032;-80
2024/03/21 00:32:08;;;;;;;7.18;4.20;;;13.00;99.90;;;;;;5007299;28;20010;-80
2024/03/21 00:34:34;;;;;;;10.00;4.80;;;13.00;99.90;;;;;;5030461;28;20028;-81
2024/03/21 00:36:59;;;;;;;8.70;4.65;;;13.00;99.90;;;;;;5011380;28;20108;-80
2024/03/21 00:39:25;;;;;;;7.05;3.67;;;13.00;99.90;;;;;;5024025;28;20032;-81
2024/03/21 00:41:51;;;;;;;17.90;4.53;;;13.00;99.90;;;;;;5011900;28;20037;-80
2024/03/21 00:44:16;;;;;;;8.38;4.07;;;13.00;99.90;;;;;;5032183;28;20155;-80
2024/03/21 00:46:42;;;;;;;16.25;5.22;;;13.00;99.90;;;;;;5010389;28;20048;-80
2024/03/21 00:49:11;;;;;;;10.38;4.50;;;13.00;99.90;;;;;;5028244;28;20075;-80
2024/03/21 00:51:37;;;;;;;7.50;3.97;;;13.00;99.90;;;;;;5012209;28;20029;-80
2024/03/21 00:54:03;;;;;;;7.68;4.00;;;13.00;99.90;;;;;;5012777;28;20017;-81
2024/03/21 00:56:28;;;;;;;6.88;4.20;;;13.00;99.90;;;;;;5029373;28;20514;-81
2024/03/21 00:58:58;;;;;;;7.72;4.15;;;13.00;99.90;;;;;;5030770;28;20037;-79
2024/03/21 01:01:24;;;;;;;10.27;4.68;;;13.00;99.90;;;;;;5008519;28;20025;-80
2024/03/21 01:03:49;;;;;;;9.70;4.47;;;13.00;99.90;;;;;;5027292;28;20053;-81
2024/03/21 01:06:15;;;;;;;9.35;3.83;;;13.00;99.90;;;;;;5012559;28;20060;-80
2024/03/21 01:08:40;;;;;;;7.15;4.07;;;13.00;99.90;;;;;;5028734;28;20041;-81
2024/03/21 01:11:06;;;;;;;10.05;4.13;;;13.00;99.90;;;;;;5026134;28;20096;-80
2024/03/21 01:13:32;;;;;;;6.35;4.20;;;13.00;99.90;;;;;;5030490;28;20025;-80
2024/03/21 01:15:57;;;;;;;8.07;4.22;;;13.00;99.90;;;;;;5011589;28;20035;-80
2024/03/21 01:18:34;;;;;;;7.15;4.40;;;13.00;99.90;;;;;;5009122;28;20121;-80
2024/03/21 01:21:02;;;;;;;8.00;4.03;;;13.00;99.90;;;;;;5028847;28;20021;-80
2024/03/21 01:23:28;;;;;;;8.02;3.97;;;13.00;99.90;;;;;;5012908;28;20064;-80
2024/03/21 01:25:54;;;;;;;7.97;4.40;;;13.00;99.90;;;;;;5025483;28;20053;-80
2024/03/21 01:28:19;;;;;;;7.53;4.05;;;12.90;99.90;;;;;;5030568;28;20028;-80
2024/03/21 01:30:45;;;;;;;5.45;3.53;;;13.00;99.90;;;;;;5011380;28;20021;-80
2024/03/21 01:33:10;;;;;;;7.82;4.25;;;13.00;99.90;;;;;;5026999;28;20103;-80
2024/03/21 01:35:36;;;;;;;12.15;4.40;;;12.90;99.90;;;;;;5011333;28;20025;-80
2024/03/21 01:38:04;;;;;;;7.45;4.30;;;12.90;99.90;;;;;;5012708;28;20032;-80
2024/03/21 01:40:30;;;;;;;7.15;4.30;;;12.90;99.90;;;;;;5011225;28;20396;-82
2024/03/21 01:42:56;;;;;;;6.88;3.97;;;12.90;99.90;;;;;;5009698;28;20021;-81
2024/03/21 01:45:22;;;;;;;6.75;3.80;;;12.90;99.90;;;;;;5030980;28;20035;-80
2024/03/21 01:47:47;;;;;;;7.03;4.10;;;12.90;99.90;;;;;;5028073;28;20032;-79
2024/03/21 01:50:13;;;;;;;6.15;3.70;;;12.90;99.90;;;;;;5013406;28;20147;-80
2024/03/21 01:52:40;;;;;;;4.95;3.70;;;12.90;99.90;;;;;;5030088;28;20112;-79
2024/03/21 01:55:08;;;;;;;6.82;3.92;;;12.90;99.90;;;;;;5027427;28;20033;-80
2024/03/21 01:57:35;;;;;;;8.52;3.72;;;12.90;99.90;;;;;;5027320;28;20021;-79
2024/03/21 02:00:03;;;;;;;5.88;4.10;;;12.90;99.90;;;;;;5028902;28;20033;-80
2024/03/21 02:02:29;;;;;;;7.45;3.95;;;12.90;99.90;;;;;;5012109;28;20120;-80
2024/03/21 02:04:55;;;;;;;6.82;3.65;;;12.90;99.90;;;;;;5009533;28;20021;-81
2024/03/21 02:07:21;;;;;;;7.43;4.20;;;12.90;99.90;;;;;;5010954;28;20024;-80
2024/03/21 02:09:49;;;;;;;11.88;3.80;;;12.90;99.90;;;;;;5030753;28;20107;-81
2024/03/21 02:12:43;;;;;;;6.97;3.60;;;12.80;99.90;;;;;;5008111;28;20022;-79
2024/03/21 02:15:10;;;;;;;5.43;3.13;;;12.90;99.90;;;;;;5028554;28;20022;-79
2024/03/21 02:17:35;;;;;;;6.80;3.55;;;12.90;99.90;;;;;;5030580;28;20020;-80
2024/03/21 02:20:03;;;;;;;7.57;4.00;;;12.90;99.90;;;;;;5009420;28;20387;-81
2024/03/21 02:22:37;;;;;;;6.30;3.85;;;12.90;99.90;;;;;;5010626;28;20048;-80
2024/03/21 02:25:10;;;;;;;6.82;3.67;;;12.90;99.90;;;;;;5030037;28;20495;-79
2024/03/21 02:27:38;;;;;;;6.70;3.88;;;12.80;99.90;;;;;;5027864;28;20387;-81
2024/03/21 02:30:04;;;;;;;9.18;3.35;;;12.80;99.90;;;;;;5009491;28;20018;-80
2024/03/21 02:32:30;;;;;;;7.00;3.65;;;12.80;99.90;;;;;;5010437;28;20036;-80
2024/03/21 02:34:56;;;;;;;8.38;3.78;;;12.80;99.90;;;;;;5010029;28;20033;-80
2024/03/21 02:37:22;;;;;;;6.20;3.72;;;12.80;99.90;;;;;;5009694;28;20026;-80
2024/03/21 02:39:51;;;;;;;8.38;3.92;;;12.80;99.90;;;;;;5030602;28;20072;-80
2024/03/21 02:42:18;;;;;;;5.10;3.33;;;12.80;99.90;;;;;;5021004;28;20557;-80
2024/03/21 02:44:43;;;;;;;7.30;3.90;;;12.80;99.90;;;;;;5028881;28;20032;-80
2024/03/21 02:47:09;;;;;;;9.65;3.55;;;12.80;99.90;;;;;;5012079;28;20474;-80
2024/03/21 02:49:34;;;;;;;6.40;3.58;;;12.80;99.90;;;;;;5012213;28;20430;-79
2024/03/21 02:52:00;;;;;;;8.60;3.78;;;12.80;99.90;;;;;;5024583;28;20292;-80
2024/03/21 02:54:25;;;;;;;7.03;3.60;;;12.80;99.90;;;;;;5007053;28;20157;-80
2024/03/21 02:56:51;;;;;;;8.20;3.88;;;12.80;99.90;;;;;;5008113;28;20056;-80
2024/03/21 02:59:16;;;;;;;4.63;3.05;;;12.80;99.90;;;;;;5023177;28;20403;-80
2024/03/21 03:01:42;;;;;;;6.68;3.50;;;12.80;99.90;;;;;;5009318;28;20109;-79
2024/03/21 03:04:10;;;;;;;8.98;3.85;;;12.80;99.90;;;;;;5008463;28;20032;-80
2024/03/21 03:06:35;;;;;;;10.73;4.15;;;12.80;99.90;;;;;;5024045;28;20016;-80
2024/03/21 03:09:01;;;;;;;7.03;4.07;;;12.80;99.90;;;;;;5008864;28;20108;-79
2024/03/21 03:11:27;;;;;;;6.25;3.45;;;12.80;99.90;;;;;;5007914;28;20083;-80
2024/03/21 03:13:52;;;;;;;4.20;3.05;;;12.80;99.90;;;;;;5009298;28;20026;-80
2024/03/21 03:16:18;;;;;;;4.22;3.10;;;12.80;99.90;;;;;;5007786;28;20045;-80
2024/03/21 03:18:43;;;;;;;4.90;3.58;;;12.80;99.90;;;;;;5005518;28;20060;-79
2024/03/21 03:21:09;;;;;;;6.18;3.30;;;12.80;99.90;;;;;;5008024;28;20688;-80
2024/03/21 03:23:35;;;;;;;6.30;3.95;;;12.80;99.90;;;;;;5027998;28;20017;-80
2024/03/21 03:26:00;;;;;;;4.32;3.15;;;12.80;99.90;;;;;;5010665;28;20025;-80
2024/03/21 03:28:26;;;;;;;5.93;3.05;;;12.80;99.90;;;;;;5011575;28;20022;-80
2024/03/21 03:30:51;;;;;;;7.75;3.30;;;12.80;99.90;;;;;;5008821;28;20738;-80
2024/03/21 03:36:01;;;;;;;7.25;3.72;;;12.80;99.90;;;;;;5028356;28;20411;-80
2024/03/21 03:38:27;;;;;;;4.72;3.30;;;12.80;99.90;;;;;;5011649;28;20029;-80
2024/03/21 03:40:52;;;;;;;7.07;3.80;;;12.80;99.90;;;;;;5010868;28;20434;-80
2024/03/21 03:43:18;;;;;;;5.25;3.10;;;12.80;99.90;;;;;;5029106;28;20033;-81
2024/03/21 03:45:45;;;;;;;7.85;4.10;;;12.80;99.90;;;;;;5027608;28;20018;-79
2024/03/21 03:48:10;;;;;;;6.03;3.28;;;12.80;99.90;;;;;;5009774;28;20075;-80
2024/03/21 03:50:36;;;;;;;7.75;3.50;;;12.80;99.90;;;;;;5029422;28;20053;-80
2024/03/21 03:53:02;;;;;;;6.05;3.60;;;12.80;99.90;;;;;;5011094;28;20032;-80
2024/03/21 03:55:27;;;;;;;7.88;3.97;;;12.80;99.90;;;;;;5009734;28;20031;-81
2024/03/21 03:57:53;;;;;;;12.30;4.00;;;12.80;99.90;;;;;;5027837;28;20052;-79
2024/03/21 04:00:20;;;;;;;7.78;3.80;;;12.80;99.90;;;;;;5011090;28;20033;-80
2024/03/21 04:02:46;;;;;;;8.63;3.67;;;12.80;99.90;;;;;;5026632;28;20099;-80
2024/03/21 04:05:15;;;;;;;5.00;3.50;;;12.80;99.90;;;;;;5028416;28;20491;-80
2024/03/21 04:07:40;;;;;;;5.97;3.78;;;12.80;99.90;;;;;;5014224;28;20104;-80
2024/03/21 04:10:06;;;;;;;7.95;4.30;;;12.80;99.90;;;;;;5010350;28;20515;-80
2024/03/21 04:12:32;;;;;;;11.45;4.20;;;12.80;99.90;;;;;;5007918;28;20434;-79
2024/03/21 04:14:58;;;;;;;5.18;3.83;;;12.80;99.90;;;;;;5029342;28;20092;-82
2024/03/21 04:17:23;;;;;;;5.50;3.63;;;12.80;99.90;;;;;;5011128;28;20156;-80
2024/03/21 04:19:49;;;;;;;8.15;3.28;;;12.80;99.90;;;;;;5032897;28;20207;-79
2024/03/21 04:22:15;;;;;;;6.15;3.17;;;12.80;99.90;;;;;;5032578;28;20044;-80
2024/03/21 04:24:41;;;;;;;6.30;3.55;;;12.80;99.90;;;;;;5013500;28;20491;-81
2024/03/21 04:27:08;;;;;;;5.65;3.53;;;12.80;99.90;;;;;;5026004;28;20609;-80
2024/03/21 04:29:34;;;;;;;7.10;3.60;;;12.80;99.90;;;;;;5034265;28;20108;-79
2024/03/21 04:31:59;;;;;;;9.30;4.00;;;12.80;99.90;;;;;;5014932;28;20120;-80
2024/03/21 04:34:25;;;;;;;5.75;3.83;;;12.80;99.90;;;;;;5011485;28;20026;-80
2024/03/21 04:36:51;;;;;;;7.68;3.90;;;12.80;99.90;;;;;;5014284;28;20108;-79
2024/03/21 04:39:17;;;;;;;7.13;4.03;;;12.80;99.90;;;;;;5014464;28;20458;-80
2024/03/21 04:41:42;;;;;;;7.15;3.95;;;12.80;99.90;;;;;;5030184;28;20029;-80
2024/03/21 04:44:08;;;;;;;12.02;4.25;;;12.80;99.90;;;;;;5031631;28;20398;-80
2024/03/21 04:46:33;;;;;;;8.68;4.28;;;12.80;99.90;;;;;;5032349;28;20396;-80
2024/03/21 04:48:59;;;;;;;7.03;4.18;;;12.80;99.90;;;;;;5030968;28;20072;-80
2024/03/21 04:51:24;;;;;;;7.20;4.15;;;12.80;99.90;;;;;;5030941;28;20568;-80
2024/03/21 04:53:50;;;;;;;11.02;4.40;;;12.80;99.90;;;;;;5031977;28;20025;-80
2024/03/21 04:56:16;;;;;;;9.45;4.68;;;12.80;99.90;;;;;;5027567;28;20491;-81
2024/03/21 04:58:41;;;;;;;7.00;4.32;;;12.70;99.90;;;;;;5031157;28;20024;-79
2024/03/21 05:01:07;;;;;;;7.70;3.95;;;12.70;99.90;;;;;;5014003;28;20116;-80
2024/03/21 05:03:33;;;;;;;9.23;3.53;;;12.70;99.90;;;;;;5012782;28;20026;-80
2024/03/21 05:05:58;;;;;;;8.20;3.35;;;12.70;99.90;;;;;;5010677;28;20029;-80
2024/03/21 05:08:25;;;;;;;11.63;4.20;;;12.80;99.90;;;;;;5010377;28;20064;-80
2024/03/21 05:10:50;;;;;;;7.38;3.85;;;12.70;99.90;;;;;;5011210;28;20075;-80
2024/03/21 05:13:16;;;;;;;9.23;3.85;;;12.80;99.90;;;;;;5029003;28;20033;-81
2024/03/21 05:15:48;;;;;;;6.97;3.40;;;12.70;99.90;;;;;;5002237;28;20045;-79
2024/03/21 05:18:14;;;;;;;7.78;4.18;;;12.70;99.90;;;;;;5011671;28;20068;-80
2024/03/21 05:20:39;;;;;;;6.82;3.22;;;12.70;99.90;;;;;;5014181;28;20056;-80
2024/03/21 05:23:05;;;;;;;10.32;3.90;;;12.70;99.90;;;;;;5031196;28;20036;-81
2024/03/21 05:25:30;;;;;;;8.85;4.13;;;12.70;99.90;;;;;;5028625;28;20442;-80
2024/03/21 05:27:56;;;;;;;7.60;3.95;;;12.70;99.90;;;;;;5030378;28;20459;-80
2024/03/21 05:30:22;;;;;;;8.32;3.88;;;12.70;99.90;;;;;;5030699;28;20026;-80
2024/03/21 05:32:48;;;;;;;7.05;3.58;;;12.70;99.90;;;;;;5010925;28;20060;-80
2024/03/21 05:35:14;;;;;;;7.72;3.38;;;12.70;99.90;;;;;;5030342;28;20057;-80
2024/03/21 05:37:39;;;;;;;5.63;3.70;;;12.70;99.90;;;;;;5006765;28;20108;-80
2024/03/21 05:40:05;;;;;;;6.57;3.50;;;12.70;99.90;;;;;;5013612;28;20499;-80
2024/03/21 05:42:31;;;;;;;8.90;3.67;;;12.70;99.90;;;;;;5029425;28;20033;-80
2024/03/21 05:44:56;;;;;;;6.63;3.33;;;12.70;99.90;;;;;;5008652;28;20025;-79
2024/03/21 05:47:23;;;;;;;9.85;3.58;;;12.70;99.90;;;;;;5030535;28;20395;-81
2024/03/21 05:49:49;;;;;;;5.32;3.40;;;12.70;99.90;;;;;;5031499;28;20021;-80
2024/03/21 05:52:16;;;;;;;13.15;4.35;;;12.70;99.90;;;;;;5014947;28;20014;-81
2024/03/21 05:54:42;;;;;;;5.95;3.75;;;12.70;99.90;;;;;;5005105;28;20022;-81
2024/03/21 05:57:08;;;;;;;6.28;4.03;;;12.70;99.90;;;;;;5024795;28;20594;-80
2024/03/21 05:59:33;;;;;;;11.98;3.88;;;12.70;99.90;;;;;;5009361;28;20034;-81
2024/03/21 06:01:59;;;;;;;8.10;3.78;;;12.70;99.90;;;;;;5006297;28;20032;-80
2024/03/21 06:04:24;;;;;;;8.45;3.55;;;12.70;99.90;;;;;;5023872;28;20033;-80
2024/03/21 06:06:50;;;;;;;5.95;3.58;;;12.70;99.90;;;;;;5029629;28;20364;-80
2024/03/21 06:09:21;;;;;;;5.63;3.33;;;12.70;99.90;;;;;;5024382;28;20569;-82
2024/03/21 06:11:47;;;;;;;6.20;3.83;;;12.70;99.90;;;;;;5021502;28;20122;-82
2024/03/21 06:14:12;;;;;;;6.50;3.53;;;12.70;99.90;;;;;;5009635;28;20101;-81
2024/03/21 06:16:38;;;;;;;5.28;3.55;;;12.70;99.90;;;;;;5011675;28;20478;-82
2024/03/21 06:19:03;;;;;;;5.22;3.15;;;12.70;99.90;;;;;;5029887;28;20518;-83
2024/03/21 06:21:29;;;;;;;6.45;3.67;;;12.70;99.90;;;;;;5011756;28;20096;-83
2024/03/21 06:23:54;;;;;;;11.40;3.50;;;12.70;99.90;;;;;;5012131;28;20026;-81
2024/03/21 06:26:20;;;;;;;6.72;3.92;;;12.70;99.90;;;;;;5010989;28;20025;-82
2024/03/21 06:28:45;;;;;;;4.97;3.53;;;12.70;99.90;;;;;;5030370;28;20100;-83
2024/03/21 06:31:11;;;;;;;5.88;3.55;;;12.70;99.90;;;;;;5008941;28;20048;-83
2024/03/21 06:33:38;;;;;;;6.30;3.88;;;12.70;99.90;;;;;;5012279;28;20025;-82
2024/03/21 06:36:04;;;;;;;6.18;3.33;;;12.70;99.90;;;;;;5027803;28;20033;-81
2024/03/21 06:38:30;;;;;;;5.13;3.38;;;12.70;99.90;;;;;;5008823;28;20049;-80
2024/03/21 06:40:55;;;;;;;6.95;3.55;;;12.70;99.90;;;;;;5006172;28;20072;-81
2024/03/21 06:43:21;;;;;;;12.55;3.83;;;12.70;99.90;;;;;;5029742;28;20033;-79
2024/03/21 06:45:57;;;;;;;6.90;3.83;;;12.80;99.90;;;;;;5010706;28;20034;-82
2024/03/21 06:48:23;;;;;;;10.48;3.60;;;12.80;99.90;;;;;;5009590;28;20018;-80
2024/03/21 06:50:52;;;;;;;10.85;3.75;;;12.80;99.90;;;;;;5011956;28;20080;-80
2024/03/21 06:53:17;;;;;;;9.57;3.53;;;12.80;99.90;;;;;;5028409;28;20032;-81
2024/03/21 06:55:43;;;;;;;7.32;3.63;;;12.80;99.90;;;;;;5029751;28;20025;-80
2024/03/21 06:58:09;;;;;;;5.03;3.20;;;12.80;99.90;;;;;;5010338;28;20049;-80
2024/03/21 07:00:35;;;;;;;5.10;3.80;;;12.80;99.90;;;;;;5011999;28;20037;-82
2024/03/21 07:03:04;;;;;;;5.70;3.35;;;12.80;99.90;;;;;;5005545;28;20033;-82
2024/03/21 07:05:29;;;;;;;6.03;3.15;;;12.80;99.90;;;;;;5029838;28;20368;-80
2024/03/21 07:07:55;;;;;;;6.20;3.13;;;12.80;99.90;;;;;;5023291;28;20022;-81
2024/03/21 07:10:21;;;;;;;6.63;3.90;;;12.70;99.90;;;;;;5007650;28;20018;-81
2024/03/21 07:12:47;;;;;;;7.60;3.95;;;12.70;99.90;;;;;;5010719;28;20025;-81
2024/03/21 07:15:14;;;;;;;5.45;3.67;;;12.70;99.90;;;;;;5007826;28;20045;-81
2024/03/21 07:17:41;;;;;;;5.05;3.38;;;12.70;99.90;;;;;;5008223;28;20029;-82
2024/03/21 07:20:07;;;;;;;8.90;4.03;;;12.60;99.90;;;;;;5021928;28;20026;-82
2024/03/21 07:22:32;;;;;;;8.93;3.83;;;12.70;99.90;;;;;;5009049;28;20026;-81
2024/03/21 07:24:58;;;;;;;7.15;3.55;;;12.60;99.90;;;;;;5008291;28;20357;-80
2024/03/21 07:27:24;;;;;;;6.07;3.00;;;12.70;99.90;;;;;;5011433;28;20018;-81
2024/03/21 07:29:49;;;;;;;10.68;3.85;;;12.70;99.90;;;;;;5028532;28;20025;-81
2024/03/21 07:32:15;;;;;;;4.65;3.10;;;12.70;99.90;;;;;;5028270;28;20050;-83
2024/03/21 07:34:40;;;;;;;4.65;2.90;;;12.70;99.90;;;;;;5028740;28;20013;-81
2024/03/21 07:37:06;;;;;;;5.13;2.95;;;12.70;99.90;;;;;;5029122;28;20105;-82
2024/03/21 07:39:34;;;;;;;6.10;3.22;;;12.70;99.90;;;;;;5011910;28;20427;-81
2024/03/21 07:42:00;;;;;;;8.30;3.00;;;12.70;99.90;;;;;;5030821;28;20075;-81
2024/03/21 07:44:26;;;;;;;7.30;3.28;;;12.70;99.90;;;;;;5033383;28;20435;-80
2024/03/21 07:46:52;;;;;;;5.45;2.88;;;12.70;99.90;;;;;;5014568;28;20068;-80
2024/03/21 07:49:18;;;;;;;5.40;3.20;;;12.70;99.90;;;;;;5011946;28;20438;-80
2024/03/21 07:51:44;;;;;;;4.20;2.78;;;12.70;99.90;;;;;;5029729;28;20096;-81
2024/03/21 07:54:09;;;;;;;9.00;3.50;;;12.70;99.90;;;;;;5015371;28;20112;-81
2024/03/21 07:56:36;;;;;;;4.65;3.15;;;12.70;99.90;;;;;;5008135;28;20036;-81
2024/03/21 07:59:02;;;;;;;9.80;3.08;;;12.70;99.90;;;;;;5032880;28;20029;-80
2024/03/21 08:01:28;;;;;;;6.25;3.45;;;12.70;99.90;;;;;;5032852;28;20056;-81
2024/03/21 08:03:54;;;;;;;5.70;3.28;;;12.70;99.90;;;;;;5034340;28;20030;-80
2024/03/21 08:06:20;;;;;;;4.70;3.22;;;12.70;99.90;;;;;;5015359;28;20025;-81
2024/03/21 08:08:46;;;;;;;4.82;3.10;;;12.70;99.90;;;;;;5012093;28;20018;-82
2024/03/21 08:11:12;;;;;;;7.50;3.75;;;12.70;99.90;;;;;;5033071;28;20079;-81
2024/03/21 08:13:40;;;;;;;8.15;3.40;;;12.70;99.90;;;;;;5014660;28;20038;-82
2024/03/21 08:16:06;;;;;;;7.50;3.97;;;12.70;99.90;;;;;;5012261;28;20013;-81
2024/03/21 08:18:33;;;;;;;7.13;3.85;;;12.70;99.90;;;;;;5014932;28;20107;-81
2024/03/21 08:20:58;;;;;;;7.25;3.17;;;12.70;99.90;;;;;;5031527;28;20029;-81
2024/03/21 08:23:24;;;;;;;9.43;3.72;;;12.70;99.90;;;;;;5012310;28;20021;-81
2024/03/21 08:25:49;;;;;;;5.38;3.45;;;12.70;99.90;;;;;;5031459;28;20035;-81
2024/03/21 08:28:15;;;;;;;6.68;3.20;;;12.60;99.90;;;;;;5032291;28;20054;-81
2024/03/21 08:30:45;;;;;;;6.60;3.75;;;12.70;99.90;;;;;;5028789;28;20021;-82
2024/03/21 08:33:11;;;;;;;6.63;3.95;;;12.70;99.90;;;;;;5030136;28;20029;-81
2024/03/21 08:35:37;;;;;;;5.65;3.75;;;12.70;99.90;;;;;;5009391;28;20034;-82
2024/03/21 08:38:03;;;;;;;6.93;3.50;;;12.70;99.90;;;;;;5012223;28;20018;-80
2024/03/21 08:40:30;;;;;;;6.90;3.65;;;12.70;99.90;;;;;;5014664;28;20017;-81
2024/03/21 08:42:55;;;;;;;4.80;3.10;;;12.60;99.90;;;;;;5013538;28;20021;-83
2024/03/21 08:45:22;;;;;;;9.27;4.03;;;12.70;99.90;;;;;;5019734;28;20048;-82
2024/03/21 08:47:48;;;;;;;6.35;3.80;;;12.70;99.90;;;;;;5014117;28;20499;-82
2024/03/21 08:50:14;;;;;;;7.25;4.05;;;12.70;99.90;;;;;;5013254;28;20059;-81
2024/03/21 08:52:40;;;;;;;8.88;4.60;;;12.70;99.90;;;;;;5013172;28;20128;-80
2024/03/21 08:55:06;;;;;;;6.22;3.55;;;12.70;99.90;;;;;;5009184;28;20033;-81
2024/03/21 08:57:33;;;;;;;10.57;4.15;;;12.70;99.90;;;;;;5031796;28;20030;-81
2024/03/21 08:59:59;;;;;;;9.68;4.40;;;12.70;99.90;;;;;;5031617;28;20548;-82
2024/03/21 09:02:25;;;;;;;6.97;4.10;;;12.60;99.90;;;;;;5008210;28;20029;-82
2024/03/21 09:04:51;;;;;;;8.95;3.75;;;12.70;99.90;;;;;;5014149;28;20075;-80
2024/03/21 09:07:16;;;;;;;8.00;4.45;;;12.70;99.90;;;;;;5031395;28;20053;-80
2024/03/21 09:09:42;;;;;;;6.10;4.45;;;12.70;99.90;;;;;;5007725;28;20484;-81
2024/03/21 09:12:07;;;;;;;7.15;4.05;;;12.60;99.90;;;;;;5031633;28;20377;-82
2024/03/21 09:14:33;;;;;;;8.48;5.15;;;12.70;99.90;;;;;;5013607;28;20564;-81
2024/03/21 09:16:58;;;;;;;13.30;4.05;;;12.60;99.90;;;;;;5013810;28;20710;-82
2024/03/21 09:19:24;;;;;;;6.47;4.05;;;12.70;99.90;;;;;;5011179;28;20676;-82
2024/03/21 09:21:50;;;;;;;12.57;4.38;;;12.70;99.90;;;;;;5031351;28;20108;-81
2024/03/21 09:24:16;;;;;;;8.52;4.63;;;12.70;99.90;;;;;;5007530;28;20108;-81
2024/03/21 09:26:42;;;;;;;7.80;4.22;;;12.70;99.90;;;;;;5012756;28;20032;-81
2024/03/21 09:29:08;;;;;;;6.35;3.97;;;12.70;99.90;;;;;;5030701;28;20022;-81
2024/03/21 09:31:33;;;;;;;7.15;4.07;;;12.80;99.90;;;;;;5030467;28;20022;-81
2024/03/21 09:33:59;;;;;;;6.03;3.88;;;12.80;99.90;;;;;;5013415;28;20384;-81
2024/03/21 09:36:26;;;;;;;10.15;4.55;;;12.80;99.90;;;;;;5011588;28;20029;-81
2024/03/21 09:38:52;;;;;;;9.90;5.05;;;12.80;99.90;;;;;;5013120;28;20032;-81
2024/03/21 09:41:18;;;;;;;9.75;4.82;;;12.80;99.90;;;;;;5013271;28;20029;-80
2024/03/21 09:43:43;;;;;;;10.45;5.07;;;12.80;99.90;;;;;;5010609;28;20087;-81
2024/03/21 09:46:15;;;;;;;7.20;4.47;;;12.80;99.90;;;;;;5013059;28;20039;-81
2024/03/21 09:48:40;;;;;;;6.40;4.55;;;12.80;99.90;;;;;;5012923;28;20105;-80
2024/03/21 09:51:21;;;;;;;7.90;5.05;;;12.80;99.90;;;;;;5012474;28;20013;-82
2024/03/21 09:53:50;;;;;;;8.90;4.72;;;12.80;99.90;;;;;;5011629;28;20506;-81
2024/03/21 09:56:16;;;;;;;9.80;5.15;;;12.80;99.90;;;;;;5029034;28;20064;-81
2024/03/21 09:58:43;;;;;;;10.75;5.07;;;12.80;99.90;;;;;;5012019;28;20076;-81
2024/03/21 10:01:22;;;;;;;8.02;4.72;;;12.80;99.90;;;;;;5030826;28;20038;-81
2024/03/21 10:03:57;;;;;;;9.20;5.35;;;12.80;99.90;;;;;;5029959;28;20025;-80
2024/03/21 10:06:24;;;;;;;10.43;5.72;;;12.80;99.90;;;;;;5011818;28;20025;-81
2024/03/21 10:08:50;;;;;;;8.35;5.35;;;12.80;99.90;;;;;;5012157;28;20091;-81
2024/03/21 10:11:16;;;;;;;8.95;5.10;;;12.80;99.90;;;;;;5030067;28;20057;-81
2024/03/21 10:13:42;;;;;;;7.18;4.70;;;12.80;99.90;;;;;;5030672;28;20029;-81
2024/03/21 10:16:14;;;;;;;13.57;4.97;;;12.80;99.90;;;;;;5011828;28;20079;-81
2024/03/21 10:18:40;;;;;;;7.95;5.07;;;12.80;99.90;;;;;;5029573;28;20497;-81
2024/03/21 10:21:19;;;;;;;12.48;5.53;;;12.90;99.90;;;;;;5011610;28;20036;-81
2024/03/21 10:23:45;;;;;;;15.35;4.70;;;12.90;99.90;;;;;;5028150;28;20018;-80
2024/03/21 10:26:16;;;;;;;8.38;5.18;;;12.90;99.90;;;;;;5011650;28;20021;-81
2024/03/21 10:28:45;;;;;;;10.27;4.75;;;12.90;99.90;;;;;;5012394;28;20487;-80
2024/03/21 10:31:15;;;;;;;8.97;4.90;;;12.90;99.90;;;;;;5010977;28;20087;-81
2024/03/21 10:33:44;;;;;;;9.23;4.68;;;12.90;99.90;;;;;;5029714;28;20108;-81
2024/03/21 10:36:12;;;;;;;9.20;4.82;;;12.90;99.90;;;;;;5010811;28;20040;-79
2024/03/21 10:38:38;;;;;;;12.43;5.70;;;12.90;99.90;;;;;;5011722;28;20419;-81
2024/03/21 10:41:11;;;;;;;8.32;4.82;;;13.00;99.90;;;;;;5001237;28;20021;-80
2024/03/21 10:43:41;;;;;;;12.00;5.65;;;12.90;99.90;;;;;;5009657;28;20450;-81
2024/03/21 10:46:10;;;;;;;9.30;5.25;;;12.90;99.90;;;;;;5011552;28;20499;-80
2024/03/21 10:48:37;;;;;;;9.40;5.43;;;12.90;99.90;;;;;;5026371;28;20017;-80
2024/03/21 10:51:15;;;;;;;11.45;5.07;;;12.90;99.90;;;;;;5026543;28;20067;-79
2024/03/21 10:53:57;;;;;;;10.13;4.22;;;12.90;99.90;;;;;;5009966;28;20505;-80
2024/03/21 10:56:35;;;;;;;8.38;4.78;;;12.90;99.90;;;;;;5009820;28;20033;-80
2024/03/21 10:59:01;;;;;;;9.48;4.95;;;13.00;99.90;;;;;;5011596;28;20577;-80
2024/03/21 11:01:38;;;;;;;11.95;4.43;;;13.10;99.90;;;;;;5010711;28;20033;-80
2024/03/21 11:04:05;;;;;;;9.60;4.75;;;13.30;99.90;;;;;;5008392;28;20484;-81
2024/03/21 11:06:34;;;;;;;8.88;5.30;;;13.40;99.90;;;;;;5011458;28;20021;-80
2024/03/21 11:09:01;;;;;;;5.97;4.20;;;13.40;99.90;;;;;;5009519;28;20022;-81
2024/03/21 11:11:27;;;;;;;7.63;4.95;;;13.40;99.90;;;;;;5010628;28;20036;-80
2024/03/21 11:13:53;;;;;;;7.65;4.50;;;13.50;99.90;;;;;;5011754;28;20450;-80
2024/03/21 11:16:19;;;;;;;6.25;4.03;;;13.50;99.90;;;;;;5010812;28;20124;-81
2024/03/21 11:18:46;;;;;;;7.88;4.10;;;13.60;99.90;;;;;;5010558;28;20108;-80
2024/03/21 11:21:13;;;;;;;6.07;4.25;;;14.00;99.90;;;;;;5029419;28;20087;-79
2024/03/21 11:23:40;;;;;;;6.60;4.30;;;14.40;99.90;;;;;;5011231;28;20022;-79
2024/03/21 11:26:10;;;;;;;10.55;5.50;;;14.80;99.90;;;;;;5010678;28;20386;-80
2024/03/21 11:28:36;;;;;;;7.75;5.15;;;15.00;99.90;;;;;;5005461;28;20018;-80
2024/03/21 11:31:02;;;;;;;5.75;4.30;;;15.30;99.90;;;;;;5009521;28;20018;-81
2024/03/21 11:33:29;;;;;;;7.40;4.63;;;15.60;99.90;;;;;;5029558;28;20027;-80
2024/03/21 11:35:55;;;;;;;8.07;5.05;;;15.80;99.90;;;;;;5029179;28;20021;-80
2024/03/21 11:38:21;;;;;;;19.08;5.32;;;16.00;99.90;;;;;;5010939;28;20075;-81
2024/03/21 11:40:47;;;;;;;5.53;4.20;;;16.10;99.90;;;;;;5010397;28;20041;-80
2024/03/21 11:43:12;;;;;;;7.20;4.25;;;16.10;99.90;;;;;;5029320;28;20025;-81
2024/03/21 11:45:38;;;;;;;8.60;4.72;;;15.90;99.90;;;;;;5011528;28;20502;-81
2024/03/21 11:48:13;;;;;;;10.07;4.47;;;15.90;99.90;;;;;;5026565;28;20463;-80
2024/03/21 11:50:39;;;;;;;8.38;4.47;;;15.90;99.90;;;;;;5006881;28;20014;-81
2024/03/21 11:53:05;;;;;;;12.50;5.28;;;16.00;99.90;;;;;;5028755;28;20028;-80
2024/03/21 11:55:31;;;;;;;9.20;4.95;;;16.00;99.90;;;;;;5009267;28;20090;-80
2024/03/21 11:57:56;;;;;;;13.63;4.90;;;15.70;99.90;;;;;;5008903;28;20496;-81
2024/03/21 12:00:22;;;;;;;7.05;4.97;;;15.70;99.90;;;;;;5010771;28;20041;-80
2024/03/21 12:02:50;;;;;;;7.80;4.90;;;15.40;99.90;;;;;;5029012;28;20075;-80
2024/03/21 12:05:16;;;;;;;5.93;4.57;;;15.20;99.90;;;;;;5008563;28;20029;-80
2024/03/21 12:07:41;;;;;;;6.28;4.65;;;14.90;99.90;;;;;;5004666;28;20022;-80
2024/03/21 12:10:11;;;;;;;11.25;5.20;;;14.70;99.90;;;;;;5006931;28;20057;-80
2024/03/21 12:12:37;;;;;;;8.43;5.18;;;14.40;99.90;;;;;;5027852;28;20025;-80
2024/03/21 12:15:07;;;;;;;7.82;5.05;;;14.30;99.90;;;;;;5007842;28;20014;-80
2024/03/21 12:17:33;;;;;;;;;;;14.10;99.90;;;;;;5028735;28;20017;-80
2024/03/21 12:19:59;;;;;;;10.07;6.18;;;14.00;99.90;;;;;;5029019;28;19909;-80
2024/03/21 12:22:26;;;;;;;9.68;6.28;;;13.90;99.90;;;;;;5011327;28;20032;-80
2024/03/21 12:24:52;;;;;;;13.65;6.15;;;14.00;99.90;;;;;;5008422;28;20387;-80
2024/03/21 12:27:17;;;;;;;10.43;6.43;;;14.20;99.90;;;;;;5029404;28;20312;-79
2024/03/21 12:29:44;;;;;;;10.25;7.00;;;14.40;99.90;;;;;;5015079;28;20445;-79
2024/03/21 12:32:09;;;;;;;10.63;6.25;;;14.50;99.90;;;;;;5007795;28;20045;-80
2024/03/21 12:34:36;;;;;;;17.70;4.28;;;14.40;99.90;;;;;;5032354;28;20053;-78
2024/03/21 12:37:02;;;;;;;9.30;4.75;;;14.40;99.90;;;;;;5032102;28;20025;-78
2024/03/21 12:39:28;;;;;;;7.28;4.82;;;14.30;99.90;;;;;;5031740;28;20047;-78
2024/03/21 12:41:54;;;;;;;9.77;4.20;;;14.10;99.90;;;;;;5032213;28;20021;-77
2024/03/21 12:44:19;;;;;;;8.63;4.80;;;14.00;99.90;;;;;;5032347;28;20361;-78